• Join FlightAware (Why Join?)
  • Login
  • US Flag 
11:52PM EDT


 

Airport Tracker/Info


-or-


 

Live Flight TrackerFlight Track Log ✈ ASH3770 ✈ 04-Jul-2013 ✈ KIAD - KORF

Flight Track Log - Related Links

Times and Time Zones

All times are in EDT time to prevent confusion due to time zone crossing. See the ASH3770 flight status page for this flight to view local times or setup timezone preferences in your user account.

Time Position Orientation Groundspeed Altitude Reporting Facility
EDT Latitude Longitude Course Direction KTS MPH feet Rate Location/Type
04:15PM 38.9500 -77.5167 125° Southeast 187 215 1,600  Level Potomac TRACON
04:17PM 39.0000 -77.5833 314° West 256 295 4,100 2,700 Climbing Potomac TRACON
04:17PM 39.0500 -77.6500 314° West 285 328 7,100 2,940 Climbing Potomac TRACON
04:18PM 39.1333 -77.6500 360° North 304 350 9,700 1,380 Climbing Potomac TRACON
04:19PM 38.7361 -77.0592 120° Southeast  Level FlightAware Approximate
04:19PM 39.2000 -77.5667 44° Northeast 367 422 9,900  Level Potomac TRACON
04:20PM 38.6853 -76.9600 125° Southeast  Level FlightAware Approximate
04:20PM 39.1833 -77.4333 155° Southeast 376 433 10,000  Level Potomac TRACON
04:21PM 38.6317 -76.8633 125° Southeast  Level FlightAware Approximate
04:21PM 39.1093 -77.5111 155° Southeast  Level Estimated
04:21PM 39.1500 -77.3167 110° East 370 426 10,900  Level Potomac TRACON
04:22PM 39.1167 -77.1833 108° East 388 447 11,000 60 Climbing Potomac TRACON
04:23PM 39.0667 -77.0500 116° Southeast 392 451 11,100  Climbing Potomac TRACON
04:25PM 38.9833 -76.9500 137° Southeast 375 432 11,100 -60 Level Potomac TRACON
04:27PM 38.7650 -76.8642 163° South 377 434 11,000 -60 Descending Washington Center
04:28PM 38.6672 -76.8228 162° South 389 448 11,000  Level Washington Center
04:29PM 38.5697 -76.7786 160° South 383 441 11,000  Level Washington Center
04:30PM 38.4744 -76.7319 159° South 377 434 11,000  Level Washington Center
04:31PM 38.3767 -76.6881 161° South 377 434 11,000  Level Washington Center
04:32PM 38.2894 -76.6444 159° South 377 434 11,000 -360 Level Washington Center
04:33PM 38.1939 -76.5983 159° South 372 428 10,300 -540 Descending Washington Center
04:34PM 38.1006 -76.5575 161° South 362 417 10,000 -180 Descending Washington Center
04:35PM 38.0050 -76.5114 159° South 362 417 10,000  Level Washington Center
04:36PM 37.9114 -76.4683 160° South 367 422 10,000  Level Washington Center
04:37PM 37.8158 -76.4250 160° South 367 422 10,000  Level Washington Center
04:38PM 37.7181 -76.3819 161° South 367 422 10,000  Level Washington Center
04:39PM 37.6222 -76.3392 161° South 367 422 10,000 -300 Level Washington Center
04:40PM 37.5494 -76.3017 158° South 337 388 9,400 -1,200 Descending Washington Center
04:41PM 37.4789 -76.2722 162° South 296 341 7,600 -1,800 Descending Washington Center
04:42PM 37.4103 -76.2428 161° South 272 313 5,900 -1,740 Descending Washington Center
04:43PM 37.3436 -76.2083 158° South 265 305 4,200 -1,020 Descending Washington Center
04:44PM 37.2792 -76.1792 160° South 259 298 3,900 -1,080 Descending Washington Center
04:45PM 37.2061 -76.1472 161° South 259 298 2,100 -960 Descending Washington Center
04:46PM 37.1417 -76.1183 160° South 259 298 2,000 -60 Descending Washington Center
04:47PM 37.0583 -76.0967 168° South 232 267 2,000 -240 Level Washington Center
04:48PM 36.9978 -76.1042 186° South 204 235 1,600 -420 Descending Washington Center